메인 페이지
METAR-TAF:

METAR-TAF

공항 :

퀘벡, 퀘벡, 캐나다

위도: 46-48N, 경도: 071-23W, 고도: 70m

현재 날씨관측

예보는 22분 전, 07:00시(UTC)에 발표되었습니다.
동북동10kt
온도 5°C
습도 93%
기압 1012 hPa
시정: 24.1km
고도 700ft 상공 구름 조금
고도 1400ft 상공 흐림

METAR: CYQB 210700Z 06010KT 15SM FEW007 OVC014 05/04 A2989 RMK SF1SC8 SF TR SLP126

시각: 03:22 (07:22 UTC)

예보

예보는 1 시간 43분 전, 05:39시(UTC)에 발표되었습니다.
예보 대상 시간: 21일 06시부터 22일 06시까지 (UTC)
동북동12kt, 순간 최대 풍속 22kt
시정: 10km
고도 800ft 상공 구름 보통
고도 1500ft 상공 흐림
일시적
21일 06시부터 21일 12시까지 (UTC)
고도 700ft 상공 흐림
약한소나기, 약한이슬비, 박무
확률 30%
21일 07시부터 21일 12시까지 (UTC)
시정: 0.8km
고도 200ft 상공
안개
21일 1200시부터 (UTC)
북동8kt
시정: 9.7km
고도 200ft 상공 구름 보통
고도 15000ft 상공 구름 많음
박무
21일 1400시부터 (UTC)
서남서8kt
시정: 10km
고도 3000ft 상공 구름 많음
22일 0000시부터 (UTC)
8kt
시정: 10km
고도 4000ft 상공 구름 조금

TAF: CYQB 210539Z 2106/2206 07012G22KT P6SM SCT008 OVC015 TEMPO 2106/2112 21/2SM -SHRA -DZ BR OVC007 PROB30 2107/2112 1/2SM FG VV002 FM211200 05008KT 6SM BR SCT002 BKN150 FM211400 24008KT P6SM BKN030 FM220000 28008KT P6SM FEW040 RMK NXT FCST BY 211200Z

4,000개 이상의 공항 관측 자료 및 예보 (METAR 및 TAF 보고).

지도상에서 검색 가능한 기상관측소가 노란 점과 빨간 점으로 표시되어 있습니다.

기상관측소 명을 보려면 표시 위로 마우스를 이동하세요.

날씨 관측과 예보를 보려면 클릭하세요.

지도 변경 : 확대하려면 엑스 표시가 있는 녹색 버튼, 축소하려면 빼기 표시가 있는 녹색 버튼, 다음 페이지의 지도를 보려면 녹색 화살표를 클릭하세요.


METAR-TAF: